createdAt,value
2019-04-10T04:53:46.263Z,56.15
2019-04-10T04:56:17.952Z,55.65
2019-04-10T04:58:49.698Z,55.52
2019-04-10T05:01:21.683Z,55.52
2019-04-10T05:03:53.441Z,55.05
2019-04-10T05:06:26.547Z,54.94
2019-04-10T05:08:59.227Z,54.86
2019-04-10T05:11:30.860Z,54.31
2019-04-10T05:14:02.748Z,54.18
2019-04-10T05:16:35.179Z,54.28
2019-04-10T05:19:06.686Z,53.71
2019-04-10T05:21:38.515Z,53.41
2019-04-10T05:24:10.058Z,53.33
2019-04-10T05:26:42.722Z,53.08
2019-04-10T05:29:15.380Z,52.54
2019-04-10T05:31:46.878Z,52.17
2019-04-10T05:34:18.304Z,51.66
2019-04-10T05:36:51.134Z,51.02
2019-04-10T05:39:22.866Z,50.56
2019-04-10T05:41:54.855Z,49.73
2019-04-10T05:44:26.376Z,49.36
2019-04-10T05:46:57.998Z,49.43
2019-04-10T05:49:31.075Z,49.41
2019-04-10T05:52:04.120Z,49.15
2019-04-10T05:54:36.106Z,48.87
2019-04-10T05:57:08.356Z,49.09
2019-04-10T05:59:40.462Z,47.94
2019-04-10T06:02:11.960Z,47.71
2019-04-10T06:04:45.412Z,47.64
2019-04-10T06:07:17.160Z,47.40
2019-04-10T06:09:57.794Z,46.54
2019-04-10T06:12:22.691Z,46.61
2019-04-10T06:14:54.943Z,45.78
2019-04-10T06:20:57.359Z,45.66
2019-04-10T06:45:29.917Z,43.39
2019-04-10T06:54:20.973Z,42.75
2019-04-10T06:56:52.854Z,42.98
2019-04-10T06:59:25.824Z,42.25
2019-04-10T07:02:11.364Z,41.63
2019-04-10T07:59:35.562Z,35.07
2019-04-10T08:02:09.770Z,35.66
2019-04-10T08:09:12.531Z,37.06
2019-04-10T08:11:44.790Z,37.84
2019-04-10T08:53:48.854Z,38.20
2019-04-10T08:56:22.538Z,37.89
2019-04-10T08:58:55.042Z,37.93
2019-04-10T09:01:26.665Z,38.01
2019-04-10T09:03:59.355Z,37.79
2019-04-10T09:06:31.510Z,37.44
2019-04-10T09:09:03.516Z,36.79
2019-04-10T09:11:35.912Z,36.91
2019-04-10T09:14:08.569Z,36.83
2019-04-10T09:16:40.165Z,36.59
2019-04-10T09:19:12.035Z,36.73
2019-04-10T09:21:45.685Z,36.51
2019-04-10T09:24:17.524Z,36.71
2019-04-10T09:26:48.917Z,36.58
2019-04-10T09:29:23.185Z,36.02
2019-04-10T09:31:53.805Z,35.93
2019-04-10T09:34:25.674Z,36.00
2019-04-10T09:36:57.705Z,35.56
2019-04-10T09:39:31.795Z,35.19
2019-04-10T09:42:03.502Z,35.05
2019-04-10T09:44:35.996Z,35.04
2019-04-10T09:47:07.783Z,35.09
2019-04-10T09:49:43.695Z,35.31
2019-04-10T09:52:12.470Z,34.07
2019-04-10T09:54:46.658Z,33.39
2019-04-10T09:57:20.129Z,30.82
2019-04-10T09:59:52.641Z,31.39
2019-04-10T10:02:25.254Z,31.78
2019-04-10T10:04:57.782Z,31.98
2019-04-10T10:07:29.451Z,32.29
2019-04-10T10:10:02.330Z,31.97
2019-04-10T10:12:36.456Z,31.70
2019-04-10T10:15:09.470Z,31.61
2019-04-10T10:17:41.280Z,31.94
2019-04-10T10:20:13.850Z,32.21
2019-04-10T10:22:45.563Z,32.26
2019-04-10T10:25:17.417Z,32.63
2019-04-10T10:27:49.169Z,32.23
2019-04-10T10:30:23.269Z,32.56
2019-04-10T10:32:55.137Z,32.40
2019-04-10T10:35:27.280Z,32.28
2019-04-10T10:37:58.953Z,32.67
2019-04-10T10:40:30.516Z,32.99
2019-04-10T10:43:02.464Z,33.04
2019-04-10T10:45:36.660Z,33.04
2019-04-10T10:48:09.963Z,33.14
2019-04-10T10:50:41.663Z,33.40
2019-04-10T10:53:12.999Z,33.58
2019-04-10T10:55:45.502Z,33.32
2019-04-10T10:58:17.537Z,33.46
2019-04-10T11:00:50.149Z,33.51
2019-04-10T11:03:22.417Z,32.91
2019-04-10T11:05:54.913Z,32.70
2019-04-10T11:08:26.899Z,32.35
2019-04-10T11:10:59.383Z,32.58
2019-04-10T11:13:33.056Z,32.18
2019-04-10T11:16:07.376Z,32.25
2019-04-10T11:18:38.812Z,32.50
2019-04-10T11:21:12.403Z,32.09
2019-04-10T11:23:43.922Z,31.92
2019-04-10T11:26:20.228Z,32.66
2019-04-10T11:28:49.542Z,32.54
2019-04-10T11:31:21.206Z,32.58
2019-04-10T11:34:04.127Z,32.76
2019-04-10T11:36:36.206Z,32.76
2019-04-10T11:39:18.644Z,32.99
2019-04-10T11:41:43.386Z,32.88
2019-04-10T11:44:17.164Z,32.80
2019-04-10T11:46:49.524Z,32.89
2019-04-10T11:49:22.855Z,32.63
2019-04-10T11:51:59.216Z,32.74
2019-04-10T11:54:29.897Z,32.82
2019-04-10T11:57:04.224Z,32.56
2019-04-10T11:59:37.963Z,32.78
2019-04-10T12:02:10.119Z,33.06
2019-04-10T12:04:52.117Z,32.98
2019-04-10T12:07:49.135Z,33.32
2019-04-10T12:12:21.741Z,32.82
2019-04-10T12:14:54.216Z,32.52
